Decoded Metar for OIKB (BANDAR ABBAS in IRAN) (IATA:BND) | Meteo·Mobile Aviation Weather
aviador You're here:

OIKB Decoded Metar

BANDAR ABBAS in IRAN
Report Time2018-10-20 02:30:00
UTC Time2018-10-20 02:41:41
Flight Rules vfr VFR
Wind350° at 04 kt
W.Decomp.*RWY 03: 3.0 kt HW 2.6 kt LCW
W.Rank350° ranks 6
Current wind is below 350° avg. (4.9)
Visibility9999 m
Phenomena:N/A
Clouds:N/A
Expected CloudBase > 800 ft AGL from Temp-Dew spread
CeilingNone
Temp23°C (ISA +8)
Dew Point21°C (89% RH)
QNH1014 hPa
Density Alt1,263 ft
Elevation33 ft
Report Wrong Elevation
Raw Report
METAR OIKB 200230Z 35004KT CAVOK 23/21 Q1014 A2996=

Extra information for OIKB:More info

Metar Taf Metar & Taf Last 4 Metars F.Rules Stats Wind Profile Meteogram Temp Stats Airport Information Weather charts Add Link Nearby VenuesMetar ALERT Operation Metar Decoded Social comments